sensor_id;sensor_type;location;lat;lon;timestamp;temperature;humidity
19039;DHT22;9652;49.014;12.052;2023-08-20T00:01:26;25.80;63.70
19039;DHT22;9652;49.014;12.052;2023-08-20T00:03:54;25.80;63.90
19039;DHT22;9652;49.014;12.052;2023-08-20T00:06:23;25.80;63.90
19039;DHT22;9652;49.014;12.052;2023-08-20T00:08:51;25.80;63.90
19039;DHT22;9652;49.014;12.052;2023-08-20T00:11:19;25.70;64.10
19039;DHT22;9652;49.014;12.052;2023-08-20T00:13:46;25.70;64.30
19039;DHT22;9652;49.014;12.052;2023-08-20T00:16:13;25.70;64.30
19039;DHT22;9652;49.014;12.052;2023-08-20T00:18:41;25.70;64.50
19039;DHT22;9652;49.014;12.052;2023-08-20T00:21:09;25.70;64.60
19039;DHT22;9652;49.014;12.052;2023-08-20T00:23:37;25.70;64.70
19039;DHT22;9652;49.014;12.052;2023-08-20T00:26:05;25.70;64.80
19039;DHT22;9652;49.014;12.052;2023-08-20T00:28:34;25.70;64.80
19039;DHT22;9652;49.014;12.052;2023-08-20T00:31:04;25.70;64.80
19039;DHT22;9652;49.014;12.052;2023-08-20T00:33:31;25.70;64.80
19039;DHT22;9652;49.014;12.052;2023-08-20T00:35:58;25.70;65.00
19039;DHT22;9652;49.014;12.052;2023-08-20T00:38:26;25.70;65.00
19039;DHT22;9652;49.014;12.052;2023-08-20T00:40:53;25.70;65.10
19039;DHT22;9652;49.014;12.052;2023-08-20T00:43:20;25.70;65.10
19039;DHT22;9652;49.014;12.052;2023-08-20T00:45:50;25.70;65.10
19039;DHT22;9652;49.014;12.052;2023-08-20T00:48:17;25.80;65.30
19039;DHT22;9652;49.014;12.052;2023-08-20T00:50:45;25.80;65.20
19039;DHT22;9652;49.014;12.052;2023-08-20T00:53:13;25.80;65.30
19039;DHT22;9652;49.014;12.052;2023-08-20T00:55:42;25.80;65.30
19039;DHT22;9652;49.014;12.052;2023-08-20T00:58:10;25.80;65.20
19039;DHT22;9652;49.014;12.052;2023-08-20T01:00:38;25.80;65.30
19039;DHT22;9652;49.014;12.052;2023-08-20T01:03:06;25.80;65.20
19039;DHT22;9652;49.014;12.052;2023-08-20T01:05:39;25.80;65.50
19039;DHT22;9652;49.014;12.052;2023-08-20T01:08:23;25.80;65.60
19039;DHT22;9652;49.014;12.052;2023-08-20T01:11:01;25.80;65.80
19039;DHT22;9652;49.014;12.052;2023-08-20T01:13:33;25.70;65.50
19039;DHT22;9652;49.014;12.052;2023-08-20T01:16:00;25.80;65.60
19039;DHT22;9652;49.014;12.052;2023-08-20T01:18:28;25.70;65.50
19039;DHT22;9652;49.014;12.052;2023-08-20T01:20:58;25.70;65.60
19039;DHT22;9652;49.014;12.052;2023-08-20T01:26:56;25.70;66.30
19039;DHT22;9652;49.014;12.052;2023-08-20T01:29:36;25.70;66.10
19039;DHT22;9652;49.014;12.052;2023-08-20T01:32:04;25.80;65.80
19039;DHT22;9652;49.014;12.052;2023-08-20T01:34:32;25.90;66.80
19039;DHT22;9652;49.014;12.052;2023-08-20T01:37:00;25.80;66.00
19039;DHT22;9652;49.014;12.052;2023-08-20T01:39:27;25.70;66.00
19039;DHT22;9652;49.014;12.052;2023-08-20T01:41:54;25.70;66.00
19039;DHT22;9652;49.014;12.052;2023-08-20T01:44:22;25.70;66.00
19039;DHT22;9652;49.014;12.052;2023-08-20T01:46:50;25.70;66.10
19039;DHT22;9652;49.014;12.052;2023-08-20T01:49:17;25.70;66.30
19039;DHT22;9652;49.014;12.052;2023-08-20T01:51:44;25.70;66.30
19039;DHT22;9652;49.014;12.052;2023-08-20T01:54:11;25.70;66.30
19039;DHT22;9652;49.014;12.052;2023-08-20T01:56:38;25.70;66.30
19039;DHT22;9652;49.014;12.052;2023-08-20T01:59:06;25.70;66.30
19039;DHT22;9652;49.014;12.052;2023-08-20T02:01:33;25.70;66.30
19039;DHT22;9652;49.014;12.052;2023-08-20T02:04:02;25.70;66.40
19039;DHT22;9652;49.014;12.052;2023-08-20T02:06:29;25.60;66.40
19039;DHT22;9652;49.014;12.052;2023-08-20T02:08:56;25.60;66.40
19039;DHT22;9652;49.014;12.052;2023-08-20T02:11:23;25.60;66.40
19039;DHT22;9652;49.014;12.052;2023-08-20T02:13:50;25.60;66.50
19039;DHT22;9652;49.014;12.052;2023-08-20T02:16:18;25.60;66.60
19039;DHT22;9652;49.014;12.052;2023-08-20T02:18:45;25.60;66.60
19039;DHT22;9652;49.014;12.052;2023-08-20T02:21:13;25.60;66.60
19039;DHT22;9652;49.014;12.052;2023-08-20T02:23:40;25.60;66.70
19039;DHT22;9652;49.014;12.052;2023-08-20T02:26:07;25.60;66.70
19039;DHT22;9652;49.014;12.052;2023-08-20T02:28:34;25.60;66.80
19039;DHT22;9652;49.014;12.052;2023-08-20T02:31:04;25.50;66.70
19039;DHT22;9652;49.014;12.052;2023-08-20T02:33:31;25.50;66.90
19039;DHT22;9652;49.014;12.052;2023-08-20T02:36:01;25.50;66.80
19039;DHT22;9652;49.014;12.052;2023-08-20T02:38:30;25.50;67.00
19039;DHT22;9652;49.014;12.052;2023-08-20T02:40:57;25.50;67.10
19039;DHT22;9652;49.014;12.052;2023-08-20T02:43:24;25.50;67.00
19039;DHT22;9652;49.014;12.052;2023-08-20T02:45:52;25.50;67.20
19039;DHT22;9652;49.014;12.052;2023-08-20T02:48:19;25.40;67.10
19039;DHT22;9652;49.014;12.052;2023-08-20T02:50:46;25.50;67.30
19039;DHT22;9652;49.014;12.052;2023-08-20T02:53:13;25.40;67.10
19039;DHT22;9652;49.014;12.052;2023-08-20T02:55:41;25.40;67.20
19039;DHT22;9652;49.014;12.052;2023-08-20T02:58:09;25.40;67.30
19039;DHT22;9652;49.014;12.052;2023-08-20T03:00:36;25.30;67.30
19039;DHT22;9652;49.014;12.052;2023-08-20T03:03:04;25.20;68.10
19039;DHT22;9652;49.014;12.052;2023-08-20T03:05:34;25.30;67.40
19039;DHT22;9652;49.014;12.052;2023-08-20T03:08:02;25.30;67.50
19039;DHT22;9652;49.014;12.052;2023-08-20T03:10:30;25.20;67.50
19039;DHT22;9652;49.014;12.052;2023-08-20T03:12:59;25.20;67.60
19039;DHT22;9652;49.014;12.052;2023-08-20T03:15:27;25.20;67.70
19039;DHT22;9652;49.014;12.052;2023-08-20T03:17:54;25.20;67.70
19039;DHT22;9652;49.014;12.052;2023-08-20T03:20:21;25.20;67.80
19039;DHT22;9652;49.014;12.052;2023-08-20T03:22:48;25.20;67.90
19039;DHT22;9652;49.014;12.052;2023-08-20T03:25:15;25.10;67.90
19039;DHT22;9652;49.014;12.052;2023-08-20T03:27:43;25.10;68.00
19039;DHT22;9652;49.014;12.052;2023-08-20T03:30:12;25.10;68.10
19039;DHT22;9652;49.014;12.052;2023-08-20T03:32:41;25.10;68.30
19039;DHT22;9652;49.014;12.052;2023-08-20T03:35:09;25.10;68.20
19039;DHT22;9652;49.014;12.052;2023-08-20T03:37:37;25.10;68.30
19039;DHT22;9652;49.014;12.052;2023-08-20T03:40:05;25.10;68.30
19039;DHT22;9652;49.014;12.052;2023-08-20T03:42:32;25.10;68.30
19039;DHT22;9652;49.014;12.052;2023-08-20T03:44:59;25.10;68.30
19039;DHT22;9652;49.014;12.052;2023-08-20T03:47:28;25.00;68.30
19039;DHT22;9652;49.014;12.052;2023-08-20T03:49:55;25.00;68.40
19039;DHT22;9652;49.014;12.052;2023-08-20T03:52:22;25.00;68.20
19039;DHT22;9652;49.014;12.052;2023-08-20T03:54:49;24.90;68.10
19039;DHT22;9652;49.014;12.052;2023-08-20T03:57:16;24.90;68.10
19039;DHT22;9652;49.014;12.052;2023-08-20T03:59:44;24.90;68.10
19039;DHT22;9652;49.014;12.052;2023-08-20T04:02:13;24.90;68.10
19039;DHT22;9652;49.014;12.052;2023-08-20T04:04:41;24.80;68.00
19039;DHT22;9652;49.014;12.052;2023-08-20T04:07:08;24.80;68.10
19039;DHT22;9652;49.014;12.052;2023-08-20T04:09:36;24.80;68.10
19039;DHT22;9652;49.014;12.052;2023-08-20T04:12:05;24.70;68.10
19039;DHT22;9652;49.014;12.052;2023-08-20T04:14:33;24.70;68.20
19039;DHT22;9652;49.014;12.052;2023-08-20T04:17:00;24.70;68.30
19039;DHT22;9652;49.014;12.052;2023-08-20T04:19:27;24.60;68.30
19039;DHT22;9652;49.014;12.052;2023-08-20T04:21:56;24.60;68.40
19039;DHT22;9652;49.014;12.052;2023-08-20T04:24:23;24.50;68.70
19039;DHT22;9652;49.014;12.052;2023-08-20T04:26:50;24.50;68.70
19039;DHT22;9652;49.014;12.052;2023-08-20T04:29:24;24.50;68.90
19039;DHT22;9652;49.014;12.052;2023-08-20T04:31:51;24.40;68.90
19039;DHT22;9652;49.014;12.052;2023-08-20T04:34:18;24.40;69.10
19039;DHT22;9652;49.014;12.052;2023-08-20T04:36:50;24.40;69.30
19039;DHT22;9652;49.014;12.052;2023-08-20T04:39:18;24.40;69.40
19039;DHT22;9652;49.014;12.052;2023-08-20T04:41:49;24.40;69.70
19039;DHT22;9652;49.014;12.052;2023-08-20T04:44:18;24.40;69.60
19039;DHT22;9652;49.014;12.052;2023-08-20T04:46:46;24.40;69.80
19039;DHT22;9652;49.014;12.052;2023-08-20T04:49:13;24.40;69.80
19039;DHT22;9652;49.014;12.052;2023-08-20T04:51:41;24.30;70.00
19039;DHT22;9652;49.014;12.052;2023-08-20T04:54:08;24.40;70.10
19039;DHT22;9652;49.014;12.052;2023-08-20T04:56:36;24.40;70.10
19039;DHT22;9652;49.014;12.052;2023-08-20T04:59:03;24.40;70.30
19039;DHT22;9652;49.014;12.052;2023-08-20T05:02:06;24.40;70.30
19039;DHT22;9652;49.014;12.052;2023-08-20T05:04:39;24.40;70.30
19039;DHT22;9652;49.014;12.052;2023-08-20T05:07:07;24.40;70.30
19039;DHT22;9652;49.014;12.052;2023-08-20T05:09:34;24.40;70.30
19039;DHT22;9652;49.014;12.052;2023-08-20T05:12:03;24.40;70.30
19039;DHT22;9652;49.014;12.052;2023-08-20T05:14:31;24.40;70.50
19039;DHT22;9652;49.014;12.052;2023-08-20T05:16:58;24.40;70.50
19039;DHT22;9652;49.014;12.052;2023-08-20T05:19:25;24.40;70.50
19039;DHT22;9652;49.014;12.052;2023-08-20T05:21:52;24.50;70.60
19039;DHT22;9652;49.014;12.052;2023-08-20T05:24:21;24.50;70.60
19039;DHT22;9652;49.014;12.052;2023-08-20T05:27:05;24.50;70.60
19039;DHT22;9652;49.014;12.052;2023-08-20T05:29:33;24.50;71.10
19039;DHT22;9652;49.014;12.052;2023-08-20T05:32:01;24.60;70.70
19039;DHT22;9652;49.014;12.052;2023-08-20T05:34:28;24.60;70.70
19039;DHT22;9652;49.014;12.052;2023-08-20T05:36:55;24.60;70.70
19039;DHT22;9652;49.014;12.052;2023-08-20T05:39:23;24.70;70.80
19039;DHT22;9652;49.014;12.052;2023-08-20T05:41:51;24.70;70.70
19039;DHT22;9652;49.014;12.052;2023-08-20T05:44:20;24.80;70.70
19039;DHT22;9652;49.014;12.052;2023-08-20T05:46:48;24.80;70.60
19039;DHT22;9652;49.014;12.052;2023-08-20T05:49:17;24.80;70.50
19039;DHT22;9652;49.014;12.052;2023-08-20T05:51:44;24.90;70.50
19039;DHT22;9652;49.014;12.052;2023-08-20T05:54:12;24.90;70.50
19039;DHT22;9652;49.014;12.052;2023-08-20T05:56:39;25.10;70.60
19039;DHT22;9652;49.014;12.052;2023-08-20T05:59:06;25.10;70.50
19039;DHT22;9652;49.014;12.052;2023-08-20T06:01:34;25.10;70.50
19039;DHT22;9652;49.014;12.052;2023-08-20T06:04:01;25.20;70.50
19039;DHT22;9652;49.014;12.052;2023-08-20T06:06:29;25.30;70.50
19039;DHT22;9652;49.014;12.052;2023-08-20T06:08:56;25.30;70.40
19039;DHT22;9652;49.014;12.052;2023-08-20T06:11:23;25.40;70.40
19039;DHT22;9652;49.014;12.052;2023-08-20T06:13:50;25.50;70.30
19039;DHT22;9652;49.014;12.052;2023-08-20T06:16:17;25.50;70.10
19039;DHT22;9652;49.014;12.052;2023-08-20T06:18:46;25.60;70.00
19039;DHT22;9652;49.014;12.052;2023-08-20T06:21:13;25.70;69.90
19039;DHT22;9652;49.014;12.052;2023-08-20T06:23:40;25.80;69.90
19039;DHT22;9652;49.014;12.052;2023-08-20T06:26:07;25.80;69.70
19039;DHT22;9652;49.014;12.052;2023-08-20T06:28:34;26.00;69.70
19039;DHT22;9652;49.014;12.052;2023-08-20T06:31:01;26.00;69.40
19039;DHT22;9652;49.014;12.052;2023-08-20T06:33:28;26.10;69.10
19039;DHT22;9652;49.014;12.052;2023-08-20T06:35:57;26.20;68.90
19039;DHT22;9652;49.014;12.052;2023-08-20T06:38:24;26.30;68.50
19039;DHT22;9652;49.014;12.052;2023-08-20T06:40:51;26.40;68.30
19039;DHT22;9652;49.014;12.052;2023-08-20T06:43:18;26.50;68.20
19039;DHT22;9652;49.014;12.052;2023-08-20T06:45:45;26.60;67.90
19039;DHT22;9652;49.014;12.052;2023-08-20T06:48:12;26.60;67.70
19039;DHT22;9652;49.014;12.052;2023-08-20T06:50:41;26.70;67.60
19039;DHT22;9652;49.014;12.052;2023-08-20T06:53:10;26.80;67.30
19039;DHT22;9652;49.014;12.052;2023-08-20T06:55:37;26.90;67.20
19039;DHT22;9652;49.014;12.052;2023-08-20T06:58:04;27.00;67.00
19039;DHT22;9652;49.014;12.052;2023-08-20T07:00:31;27.10;66.70
19039;DHT22;9652;49.014;12.052;2023-08-20T07:02:58;27.20;66.60
19039;DHT22;9652;49.014;12.052;2023-08-20T07:05:25;27.20;66.30
19039;DHT22;9652;49.014;12.052;2023-08-20T07:07:52;27.30;66.10
19039;DHT22;9652;49.014;12.052;2023-08-20T07:10:21;27.40;65.80
19039;DHT22;9652;49.014;12.052;2023-08-20T07:12:48;27.50;65.50
19039;DHT22;9652;49.014;12.052;2023-08-20T07:15:15;27.60;65.70
19039;DHT22;9652;49.014;12.052;2023-08-20T07:17:42;27.60;65.50
19039;DHT22;9652;49.014;12.052;2023-08-20T07:20:10;27.70;65.30
19039;DHT22;9652;49.014;12.052;2023-08-20T07:22:37;27.70;64.80
19039;DHT22;9652;49.014;12.052;2023-08-20T07:25:04;27.80;64.50
19039;DHT22;9652;49.014;12.052;2023-08-20T07:27:32;27.90;64.40
19039;DHT22;9652;49.014;12.052;2023-08-20T07:29:59;28.10;64.40
19039;DHT22;9652;49.014;12.052;2023-08-20T07:32:26;28.00;64.20
19039;DHT22;9652;49.014;12.052;2023-08-20T07:34:53;28.20;64.30
19039;DHT22;9652;49.014;12.052;2023-08-20T07:37:20;28.30;64.00
19039;DHT22;9652;49.014;12.052;2023-08-20T07:39:47;28.30;63.70
19039;DHT22;9652;49.014;12.052;2023-08-20T07:42:14;28.40;63.60
19039;DHT22;9652;49.014;12.052;2023-08-20T07:44:45;28.50;63.50
19039;DHT22;9652;49.014;12.052;2023-08-20T07:47:12;28.60;63.00
19039;DHT22;9652;49.014;12.052;2023-08-20T07:49:39;28.60;62.80
19039;DHT22;9652;49.014;12.052;2023-08-20T07:52:06;28.70;62.70
19039;DHT22;9652;49.014;12.052;2023-08-20T07:54:33;28.70;62.50
19039;DHT22;9652;49.014;12.052;2023-08-20T07:57:00;28.80;62.30
19039;DHT22;9652;49.014;12.052;2023-08-20T07:59:28;28.90;62.20
19039;DHT22;9652;49.014;12.052;2023-08-20T08:01:56;29.00;62.10
19039;DHT22;9652;49.014;12.052;2023-08-20T08:04:23;29.00;61.70
19039;DHT22;9652;49.014;12.052;2023-08-20T08:06:51;29.10;62.50
19039;DHT22;9652;49.014;12.052;2023-08-20T08:09:19;29.20;61.40
19039;DHT22;9652;49.014;12.052;2023-08-20T08:11:47;29.20;61.10
19039;DHT22;9652;49.014;12.052;2023-08-20T08:14:15;29.30;61.20
19039;DHT22;9652;49.014;12.052;2023-08-20T08:16:42;29.30;61.00
19039;DHT22;9652;49.014;12.052;2023-08-20T08:19:10;29.40;60.80
19039;DHT22;9652;49.014;12.052;2023-08-20T08:21:37;29.50;60.40
19039;DHT22;9652;49.014;12.052;2023-08-20T08:24:05;29.50;60.20
19039;DHT22;9652;49.014;12.052;2023-08-20T08:26:34;29.60;60.00
19039;DHT22;9652;49.014;12.052;2023-08-20T08:29:01;29.70;59.80
19039;DHT22;9652;49.014;12.052;2023-08-20T08:31:29;29.80;59.80
19039;DHT22;9652;49.014;12.052;2023-08-20T08:33:56;29.80;59.50
19039;DHT22;9652;49.014;12.052;2023-08-20T08:36:25;29.90;59.40
19039;DHT22;9652;49.014;12.052;2023-08-20T08:38:52;29.90;59.30
19039;DHT22;9652;49.014;12.052;2023-08-20T08:41:22;30.00;59.30
19039;DHT22;9652;49.014;12.052;2023-08-20T08:43:50;30.10;59.10
19039;DHT22;9652;49.014;12.052;2023-08-20T08:46:17;30.10;59.00
19039;DHT22;9652;49.014;12.052;2023-08-20T08:48:46;30.20;58.90
19039;DHT22;9652;49.014;12.052;2023-08-20T08:51:13;30.30;58.60
19039;DHT22;9652;49.014;12.052;2023-08-20T08:53:43;30.30;58.50
19039;DHT22;9652;49.014;12.052;2023-08-20T08:56:10;30.40;58.20
19039;DHT22;9652;49.014;12.052;2023-08-20T08:58:37;30.50;58.20
19039;DHT22;9652;49.014;12.052;2023-08-20T09:01:04;30.50;58.10
19039;DHT22;9652;49.014;12.052;2023-08-20T09:03:32;30.60;58.00
19039;DHT22;9652;49.014;12.052;2023-08-20T09:05:59;30.60;57.80
19039;DHT22;9652;49.014;12.052;2023-08-20T09:08:30;30.80;57.90
19039;DHT22;9652;49.014;12.052;2023-08-20T09:11:00;30.80;57.70
19039;DHT22;9652;49.014;12.052;2023-08-20T09:13:33;30.90;57.30
19039;DHT22;9652;49.014;12.052;2023-08-20T09:16:04;30.90;57.00
19039;DHT22;9652;49.014;12.052;2023-08-20T09:18:32;31.00;57.00
19039;DHT22;9652;49.014;12.052;2023-08-20T09:21:00;31.10;57.00
19039;DHT22;9652;49.014;12.052;2023-08-20T09:23:30;31.20;56.80
19039;DHT22;9652;49.014;12.052;2023-08-20T09:26:01;31.20;56.30
19039;DHT22;9652;49.014;12.052;2023-08-20T09:28:30;31.30;56.10
19039;DHT22;9652;49.014;12.052;2023-08-20T09:31:08;31.30;56.10
19039;DHT22;9652;49.014;12.052;2023-08-20T09:33:35;31.40;56.20
19039;DHT22;9652;49.014;12.052;2023-08-20T09:36:03;31.50;56.00
19039;DHT22;9652;49.014;12.052;2023-08-20T09:38:36;31.50;55.70
19039;DHT22;9652;49.014;12.052;2023-08-20T09:41:08;31.50;55.30
19039;DHT22;9652;49.014;12.052;2023-08-20T09:43:38;31.60;55.60
19039;DHT22;9652;49.014;12.052;2023-08-20T09:46:06;31.60;55.50
19039;DHT22;9652;49.014;12.052;2023-08-20T09:48:35;31.70;55.50
19039;DHT22;9652;49.014;12.052;2023-08-20T09:51:08;31.80;55.40
19039;DHT22;9652;49.014;12.052;2023-08-20T09:53:45;31.90;55.10
19039;DHT22;9652;49.014;12.052;2023-08-20T09:56:24;32.00;54.70
19039;DHT22;9652;49.014;12.052;2023-08-20T09:58:54;32.00;54.50
19039;DHT22;9652;49.014;12.052;2023-08-20T10:01:24;32.10;54.50
19039;DHT22;9652;49.014;12.052;2023-08-20T10:03:51;32.20;54.20
19039;DHT22;9652;49.014;12.052;2023-08-20T10:06:18;32.30;54.20
19039;DHT22;9652;49.014;12.052;2023-08-20T10:08:47;32.30;54.00
19039;DHT22;9652;49.014;12.052;2023-08-20T10:11:15;32.30;54.00
19039;DHT22;9652;49.014;12.052;2023-08-20T10:13:44;32.40;53.80
19039;DHT22;9652;49.014;12.052;2023-08-20T10:16:11;32.50;53.70
19039;DHT22;9652;49.014;12.052;2023-08-20T10:18:39;32.50;53.70
19039;DHT22;9652;49.014;12.052;2023-08-20T10:21:07;32.60;53.80
19039;DHT22;9652;49.014;12.052;2023-08-20T10:23:35;32.70;53.50
19039;DHT22;9652;49.014;12.052;2023-08-20T10:26:07;32.70;53.30
19039;DHT22;9652;49.014;12.052;2023-08-20T10:28:35;32.80;53.10
19039;DHT22;9652;49.014;12.052;2023-08-20T10:31:06;32.80;53.00
19039;DHT22;9652;49.014;12.052;2023-08-20T10:33:35;32.90;52.60
19039;DHT22;9652;49.014;12.052;2023-08-20T10:36:12;32.90;52.60
19039;DHT22;9652;49.014;12.052;2023-08-20T10:38:41;33.00;52.10
19039;DHT22;9652;49.014;12.052;2023-08-20T10:41:12;33.10;52.30
19039;DHT22;9652;49.014;12.052;2023-08-20T10:43:46;33.20;52.20
19039;DHT22;9652;49.014;12.052;2023-08-20T10:46:17;33.20;51.90
19039;DHT22;9652;49.014;12.052;2023-08-20T10:48:47;33.30;52.20
19039;DHT22;9652;49.014;12.052;2023-08-20T10:51:17;33.30;52.00
19039;DHT22;9652;49.014;12.052;2023-08-20T10:54:02;33.40;51.80
19039;DHT22;9652;49.014;12.052;2023-08-20T10:56:40;33.50;51.50
19039;DHT22;9652;49.014;12.052;2023-08-20T10:59:09;33.50;51.10
19039;DHT22;9652;49.014;12.052;2023-08-20T11:01:43;33.60;51.50
19039;DHT22;9652;49.014;12.052;2023-08-20T11:04:13;33.70;50.90
19039;DHT22;9652;49.014;12.052;2023-08-20T11:06:41;33.80;50.90
19039;DHT22;9652;49.014;12.052;2023-08-20T11:09:09;33.80;51.00
19039;DHT22;9652;49.014;12.052;2023-08-20T11:11:38;33.80;50.70
19039;DHT22;9652;49.014;12.052;2023-08-20T11:14:07;33.90;50.60
19039;DHT22;9652;49.014;12.052;2023-08-20T11:16:43;33.90;50.40
19039;DHT22;9652;49.014;12.052;2023-08-20T11:19:12;34.00;51.00
19039;DHT22;9652;49.014;12.052;2023-08-20T11:21:41;34.00;50.30
19039;DHT22;9652;49.014;12.052;2023-08-20T11:24:09;34.10;50.20
19039;DHT22;9652;49.014;12.052;2023-08-20T11:26:39;34.20;50.10
19039;DHT22;9652;49.014;12.052;2023-08-20T11:29:08;34.20;49.80
19039;DHT22;9652;49.014;12.052;2023-08-20T11:31:36;34.30;50.00
19039;DHT22;9652;49.014;12.052;2023-08-20T11:34:06;34.30;49.80
19039;DHT22;9652;49.014;12.052;2023-08-20T11:36:35;34.30;49.50
19039;DHT22;9652;49.014;12.052;2023-08-20T11:39:02;34.40;49.70
19039;DHT22;9652;49.014;12.052;2023-08-20T11:41:30;34.40;49.40
19039;DHT22;9652;49.014;12.052;2023-08-20T11:43:58;34.50;49.40
19039;DHT22;9652;49.014;12.052;2023-08-20T11:46:25;34.50;49.40
19039;DHT22;9652;49.014;12.052;2023-08-20T11:48:59;34.50;49.30
19039;DHT22;9652;49.014;12.052;2023-08-20T11:51:28;34.60;48.80
19039;DHT22;9652;49.014;12.052;2023-08-20T11:53:56;34.60;49.10
19039;DHT22;9652;49.014;12.052;2023-08-20T11:56:24;34.60;48.80
19039;DHT22;9652;49.014;12.052;2023-08-20T11:59:00;34.70;48.80
19039;DHT22;9652;49.014;12.052;2023-08-20T12:01:30;34.70;48.00
19039;DHT22;9652;49.014;12.052;2023-08-20T12:04:00;34.80;48.50
19039;DHT22;9652;49.014;12.052;2023-08-20T12:06:30;34.80;48.10
19039;DHT22;9652;49.014;12.052;2023-08-20T12:08:57;34.90;47.70
19039;DHT22;9652;49.014;12.052;2023-08-20T12:11:25;34.90;47.60
19039;DHT22;9652;49.014;12.052;2023-08-20T12:13:52;34.90;47.30
19039;DHT22;9652;49.014;12.052;2023-08-20T12:16:22;34.90;47.20
19039;DHT22;9652;49.014;12.052;2023-08-20T12:18:50;35.00;47.20
19039;DHT22;9652;49.014;12.052;2023-08-20T12:21:18;35.00;47.00
19039;DHT22;9652;49.014;12.052;2023-08-20T12:23:46;35.10;46.60
19039;DHT22;9652;49.014;12.052;2023-08-20T12:26:13;35.20;46.50
19039;DHT22;9652;49.014;12.052;2023-08-20T12:28:40;35.20;46.70
19039;DHT22;9652;49.014;12.052;2023-08-20T12:31:07;35.20;46.50
19039;DHT22;9652;49.014;12.052;2023-08-20T12:33:35;35.30;46.80
19039;DHT22;9652;49.014;12.052;2023-08-20T12:36:02;35.30;46.50
19039;DHT22;9652;49.014;12.052;2023-08-20T12:38:30;35.30;46.00
19039;DHT22;9652;49.014;12.052;2023-08-20T12:41:00;35.40;45.80
19039;DHT22;9652;49.014;12.052;2023-08-20T12:43:31;35.40;45.60
19039;DHT22;9652;49.014;12.052;2023-08-20T12:45:58;35.50;45.50
19039;DHT22;9652;49.014;12.052;2023-08-20T12:48:25;35.50;45.10
19039;DHT22;9652;49.014;12.052;2023-08-20T12:50:52;35.60;45.10
19039;DHT22;9652;49.014;12.052;2023-08-20T12:53:19;35.60;44.80
19039;DHT22;9652;49.014;12.052;2023-08-20T12:55:46;35.70;45.20
19039;DHT22;9652;49.014;12.052;2023-08-20T12:58:15;35.70;45.10
19039;DHT22;9652;49.014;12.052;2023-08-20T13:00:43;35.80;44.80
19039;DHT22;9652;49.014;12.052;2023-08-20T13:03:11;35.90;44.80
19039;DHT22;9652;49.014;12.052;2023-08-20T13:05:38;36.00;44.60
19039;DHT22;9652;49.014;12.052;2023-08-20T13:08:07;36.10;44.20
19039;DHT22;9652;49.014;12.052;2023-08-20T13:10:37;36.20;44.00
19039;DHT22;9652;49.014;12.052;2023-08-20T13:13:09;36.30;44.00
19039;DHT22;9652;49.014;12.052;2023-08-20T13:15:39;36.30;43.50
19039;DHT22;9652;49.014;12.052;2023-08-20T13:18:08;36.40;43.40
19039;DHT22;9652;49.014;12.052;2023-08-20T13:20:36;36.40;43.60
19039;DHT22;9652;49.014;12.052;2023-08-20T13:23:03;36.50;43.40
19039;DHT22;9652;49.014;12.052;2023-08-20T13:25:30;36.60;43.20
19039;DHT22;9652;49.014;12.052;2023-08-20T13:27:58;36.60;43.20
19039;DHT22;9652;49.014;12.052;2023-08-20T13:30:25;36.70;43.10
19039;DHT22;9652;49.014;12.052;2023-08-20T13:32:54;36.80;42.90
19039;DHT22;9652;49.014;12.052;2023-08-20T13:35:21;36.90;42.60
19039;DHT22;9652;49.014;12.052;2023-08-20T13:37:49;37.00;42.70
19039;DHT22;9652;49.014;12.052;2023-08-20T13:40:16;37.10;43.10
19039;DHT22;9652;49.014;12.052;2023-08-20T13:42:43;37.30;43.30
19039;DHT22;9652;49.014;12.052;2023-08-20T13:45:10;37.60;43.30
19039;DHT22;9652;49.014;12.052;2023-08-20T13:47:37;38.10;43.70
19039;DHT22;9652;49.014;12.052;2023-08-20T13:50:06;38.50;43.40
19039;DHT22;9652;49.014;12.052;2023-08-20T13:52:34;39.10;42.50
19039;DHT22;9652;49.014;12.052;2023-08-20T13:55:01;39.60;41.70
19039;DHT22;9652;49.014;12.052;2023-08-20T13:57:29;40.10;40.90
19039;DHT22;9652;49.014;12.052;2023-08-20T13:59:56;40.70;40.50
19039;DHT22;9652;49.014;12.052;2023-08-20T14:02:24;41.20;39.90
19039;DHT22;9652;49.014;12.052;2023-08-20T14:04:51;41.70;39.10
19039;DHT22;9652;49.014;12.052;2023-08-20T14:07:19;42.00;38.30
19039;DHT22;9652;49.014;12.052;2023-08-20T14:09:46;42.20;37.50
19039;DHT22;9652;49.014;12.052;2023-08-20T14:12:13;42.40;37.10
19039;DHT22;9652;49.014;12.052;2023-08-20T14:14:42;42.60;36.60
19039;DHT22;9652;49.014;12.052;2023-08-20T14:17:09;42.60;35.80
19039;DHT22;9652;49.014;12.052;2023-08-20T14:19:36;42.70;35.40
19039;DHT22;9652;49.014;12.052;2023-08-20T14:22:03;42.70;35.10
19039;DHT22;9652;49.014;12.052;2023-08-20T14:24:32;42.70;34.70
19039;DHT22;9652;49.014;12.052;2023-08-20T14:26:59;42.70;34.60
19039;DHT22;9652;49.014;12.052;2023-08-20T14:29:26;42.70;34.30
19039;DHT22;9652;49.014;12.052;2023-08-20T14:31:53;42.70;34.20
19039;DHT22;9652;49.014;12.052;2023-08-20T14:34:20;42.70;33.90
19039;DHT22;9652;49.014;12.052;2023-08-20T14:36:47;42.80;34.10
19039;DHT22;9652;49.014;12.052;2023-08-20T14:39:14;42.80;34.00
19039;DHT22;9652;49.014;12.052;2023-08-20T14:41:42;42.80;34.50
19039;DHT22;9652;49.014;12.052;2023-08-20T14:44:09;42.80;33.80
19039;DHT22;9652;49.014;12.052;2023-08-20T14:46:36;42.80;34.00
19039;DHT22;9652;49.014;12.052;2023-08-20T14:49:04;42.90;34.00
19039;DHT22;9652;49.014;12.052;2023-08-20T14:51:31;42.90;33.80
19039;DHT22;9652;49.014;12.052;2023-08-20T14:54:00;43.00;33.50
19039;DHT22;9652;49.014;12.052;2023-08-20T14:56:27;43.00;33.40
19039;DHT22;9652;49.014;12.052;2023-08-20T14:58:56;43.00;33.10
19039;DHT22;9652;49.014;12.052;2023-08-20T15:01:23;43.00;33.20
19039;DHT22;9652;49.014;12.052;2023-08-20T15:03:50;43.10;33.00
19039;DHT22;9652;49.014;12.052;2023-08-20T15:06:17;43.20;33.00
19039;DHT22;9652;49.014;12.052;2023-08-20T15:08:47;43.20;32.50
19039;DHT22;9652;49.014;12.052;2023-08-20T15:11:14;43.30;33.00
19039;DHT22;9652;49.014;12.052;2023-08-20T15:13:41;43.50;32.80
19039;DHT22;9652;49.014;12.052;2023-08-20T15:16:09;43.50;32.30
19039;DHT22;9652;49.014;12.052;2023-08-20T15:18:36;43.60;32.10
19039;DHT22;9652;49.014;12.052;2023-08-20T15:21:03;43.70;31.60
19039;DHT22;9652;49.014;12.052;2023-08-20T15:23:30;43.70;32.10
19039;DHT22;9652;49.014;12.052;2023-08-20T15:25:57;43.70;32.00
19039;DHT22;9652;49.014;12.052;2023-08-20T15:28:25;43.80;31.80
19039;DHT22;9652;49.014;12.052;2023-08-20T15:30:55;43.90;31.90
19039;DHT22;9652;49.014;12.052;2023-08-20T15:33:24;44.00;31.90
19039;DHT22;9652;49.014;12.052;2023-08-20T15:35:51;44.10;32.00
19039;DHT22;9652;49.014;12.052;2023-08-20T15:38:18;44.20;31.90
19039;DHT22;9652;49.014;12.052;2023-08-20T15:40:45;44.30;31.30